createdAt,value
2023-03-05T00:04:47.590Z,71.99
2023-03-05T00:09:51.193Z,71.87
2023-03-05T00:14:54.747Z,71.93
2023-03-05T00:20:01.914Z,72.03
2023-03-05T00:25:08.070Z,72.16
2023-03-05T00:30:14.179Z,72.31
2023-03-05T00:35:18.464Z,72.31
2023-03-05T00:40:22.793Z,72.48
2023-03-05T00:45:26.411Z,72.62
2023-03-05T00:50:30.158Z,72.49
2023-03-05T00:55:35.499Z,72.72
2023-03-05T01:00:38.946Z,73.13
2023-03-05T01:05:43.336Z,72.86
2023-03-05T01:10:47.253Z,72.88
2023-03-05T01:15:50.621Z,72.91
2023-03-05T01:20:54.362Z,72.84
2023-03-05T01:25:59.249Z,73.01
2023-03-05T01:31:06.443Z,72.98
2023-03-05T01:36:14.522Z,73.01
2023-03-05T01:41:18.879Z,73.05
2023-03-05T01:46:28.972Z,73.20
2023-03-05T01:51:38.039Z,72.95
2023-03-05T01:56:43.406Z,72.75
2023-03-05T02:01:53.068Z,72.49
2023-03-05T02:06:56.858Z,72.45
2023-03-05T02:12:00.348Z,71.86
2023-03-05T02:17:04.009Z,71.92
2023-03-05T02:22:15.052Z,71.72
2023-03-05T02:27:22.607Z,72.33
2023-03-05T02:32:26.283Z,72.52
2023-03-05T02:37:29.846Z,72.61
2023-03-05T02:42:33.710Z,71.09
2023-03-05T02:47:38.373Z,70.69
2023-03-05T02:52:43.521Z,70.91
2023-03-05T02:57:50.756Z,71.46
2023-03-05T03:02:54.392Z,72.03
2023-03-05T03:07:57.840Z,72.31
2023-03-05T03:13:01.378Z,72.44
2023-03-05T03:18:05.333Z,72.57
2023-03-05T03:23:08.826Z,72.95
2023-03-05T03:28:12.354Z,73.14
2023-03-05T03:33:17.646Z,73.28
2023-03-05T03:38:21.313Z,73.48
2023-03-05T03:43:24.749Z,73.51
2023-03-05T03:48:28.166Z,73.42
2023-03-05T03:53:31.884Z,73.39
2023-03-05T03:58:35.268Z,73.57
2023-03-05T04:03:38.761Z,73.63
2023-03-05T04:08:42.149Z,73.79
2023-03-05T04:13:45.655Z,73.78
2023-03-05T04:18:49.158Z,73.68
2023-03-05T04:23:52.755Z,73.66
2023-03-05T04:28:56.240Z,73.70
2023-03-05T04:34:00.653Z,73.73
2023-03-05T04:39:04.346Z,73.88
2023-03-05T04:44:08.008Z,73.93
2023-03-05T04:49:11.489Z,74.03
2023-03-05T04:54:14.956Z,74.11
2023-03-05T04:59:18.321Z,74.15
2023-03-05T05:04:22.052Z,74.09
2023-03-05T05:09:25.908Z,74.19
2023-03-05T05:14:29.310Z,74.22
2023-03-05T05:19:34.141Z,74.42
2023-03-05T05:24:37.773Z,75.00
2023-03-05T05:29:41.421Z,75.21
2023-03-05T05:34:44.867Z,75.28
2023-03-05T05:39:49.674Z,75.39
2023-03-05T05:44:54.798Z,75.42
2023-03-05T05:49:58.750Z,75.61
2023-03-05T05:55:02.395Z,75.66
2023-03-05T06:00:09.968Z,75.74
2023-03-05T06:05:15.955Z,75.71
2023-03-05T06:10:19.587Z,75.74
2023-03-05T06:15:24.279Z,75.92
2023-03-05T06:20:28.057Z,76.25
2023-03-05T06:25:31.586Z,76.88
2023-03-05T06:30:35.036Z,77.66
2023-03-05T06:35:39.387Z,79.24
2023-03-05T06:40:42.845Z,80.30
2023-03-05T06:45:46.582Z,80.77
2023-03-05T06:50:50.067Z,81.62
2023-03-05T06:55:53.912Z,82.01
2023-03-05T07:00:57.453Z,82.90
2023-03-05T07:06:03.785Z,83.56
2023-03-05T07:11:11.188Z,83.49
2023-03-05T07:16:17.885Z,83.40
2023-03-05T07:21:23.364Z,83.34
2023-03-05T07:26:28.375Z,83.14
2023-03-05T07:31:32.408Z,82.94
2023-03-05T07:36:37.440Z,82.56
2023-03-05T07:41:40.979Z,82.01
2023-03-05T07:46:45.145Z,80.87
2023-03-05T07:51:48.643Z,79.96
2023-03-05T07:56:54.889Z,79.26
2023-03-05T08:01:59.276Z,77.96
2023-03-05T08:07:03.460Z,76.70
2023-03-05T08:12:09.740Z,76.01
2023-03-05T08:17:13.320Z,75.89
2023-03-05T08:22:19.864Z,75.02
2023-03-05T08:27:23.664Z,74.35
2023-03-05T08:32:27.302Z,73.47
2023-03-05T08:37:31.133Z,72.75
2023-03-05T08:42:34.723Z,72.03
2023-03-05T08:47:38.214Z,71.83
2023-03-05T08:52:41.999Z,71.65
2023-03-05T08:57:45.445Z,72.33
2023-03-05T09:02:49.035Z,72.54
2023-03-05T09:07:52.694Z,72.79
2023-03-05T09:12:56.191Z,73.42
2023-03-05T09:17:59.751Z,73.97
2023-03-05T09:23:03.547Z,74.44
2023-03-05T09:28:07.173Z,74.79
2023-03-05T09:33:10.723Z,75.40
2023-03-05T09:38:14.239Z,76.49
2023-03-05T09:43:29.608Z,77.46
2023-03-05T09:48:47.840Z,78.22
2023-03-05T09:54:02.816Z,78.26
2023-03-05T09:59:20.765Z,78.01
2023-03-05T10:04:29.052Z,77.48
2023-03-05T10:09:44.778Z,77.12
2023-03-05T10:14:49.878Z,76.29
2023-03-05T10:20:25.374Z,75.79
2023-03-05T10:25:43.370Z,74.39
2023-03-05T10:31:18.846Z,73.86
2023-03-05T10:36:46.244Z,73.95
2023-03-05T10:42:05.222Z,70.34
2023-03-05T10:47:21.299Z,69.83
2023-03-05T10:52:31.904Z,69.72
2023-03-05T10:57:35.698Z,68.88
2023-03-05T11:02:55.300Z,69.00
2023-03-05T11:07:58.695Z,68.82
2023-03-05T11:13:22.041Z,68.67
2023-03-05T11:18:25.541Z,68.61
2023-03-05T11:23:28.860Z,69.24
2023-03-05T11:28:35.645Z,69.44
2023-03-05T11:33:39.130Z,69.49
2023-03-05T11:38:50.836Z,67.02
2023-03-05T11:43:55.447Z,67.56
2023-03-05T11:48:59.075Z,68.77
2023-03-05T11:54:08.783Z,67.76
2023-03-05T11:59:17.547Z,67.73
2023-03-05T12:04:22.063Z,68.20
2023-03-05T12:09:29.862Z,66.35
2023-03-05T12:14:44.027Z,68.23
2023-03-05T12:19:57.428Z,72.67
2023-03-05T12:25:26.007Z,75.31
2023-03-05T12:30:57.615Z,76.47
2023-03-05T12:36:42.365Z,76.52
2023-03-05T12:41:45.723Z,76.23
2023-03-05T12:47:18.566Z,75.90
2023-03-05T12:52:29.073Z,75.03
2023-03-05T12:57:34.531Z,74.36
2023-03-05T13:02:42.390Z,73.88
2023-03-05T13:07:47.186Z,73.38
2023-03-05T13:12:53.185Z,72.62
2023-03-05T13:17:58.439Z,72.32
2023-03-05T13:23:18.053Z,72.25
2023-03-05T13:28:21.567Z,72.56
2023-03-05T13:33:27.907Z,72.18
2023-03-05T13:38:36.448Z,71.97
2023-03-05T13:43:48.307Z,71.93
2023-03-05T13:48:52.706Z,71.75
2023-03-05T13:53:56.680Z,70.65
2023-03-05T13:59:00.448Z,70.47
2023-03-05T14:04:08.519Z,70.24
2023-03-05T14:09:21.517Z,71.26
2023-03-05T14:14:26.048Z,71.62
2023-03-05T14:19:37.271Z,71.50
2023-03-05T14:24:51.052Z,72.01
2023-03-05T14:29:54.757Z,71.85
2023-03-05T14:34:59.886Z,72.28
2023-03-05T14:40:06.184Z,72.58
2023-03-05T14:45:15.053Z,72.19
2023-03-05T14:50:20.809Z,71.81
2023-03-05T14:55:26.348Z,71.98
2023-03-05T15:00:30.323Z,72.23
2023-03-05T15:05:33.928Z,72.30
2023-03-05T15:10:37.260Z,72.10
2023-03-05T15:15:41.263Z,71.78
2023-03-05T15:20:45.274Z,71.29
2023-03-05T15:25:49.044Z,71.70
2023-03-05T15:30:52.565Z,71.87
2023-03-05T15:35:56.216Z,72.21
2023-03-05T15:41:01.934Z,72.54
2023-03-05T15:46:07.158Z,72.82
2023-03-05T15:51:10.677Z,73.06
2023-03-05T15:56:18.128Z,73.21
2023-03-05T16:01:23.217Z,73.67
2023-03-05T16:06:27.919Z,74.01
2023-03-05T16:11:34.693Z,74.37
2023-03-05T16:16:38.873Z,74.49
2023-03-05T16:21:42.594Z,74.69
2023-03-05T16:26:46.133Z,74.99
2023-03-05T16:31:49.540Z,75.05
2023-03-05T16:36:53.208Z,75.26
2023-03-05T16:41:57.204Z,75.69
2023-03-05T16:47:00.939Z,76.01
2023-03-05T16:52:16.500Z,76.43
2023-03-05T16:57:24.788Z,76.86
2023-03-05T17:02:28.460Z,77.17
2023-03-05T17:07:32.059Z,77.24
2023-03-05T17:12:35.716Z,77.48
2023-03-05T17:17:40.052Z,77.76
2023-03-05T17:22:43.601Z,78.17
2023-03-05T17:27:47.509Z,78.82
2023-03-05T17:32:53.453Z,78.83
2023-03-05T17:37:57.314Z,79.40
2023-03-05T17:43:02.529Z,79.64
2023-03-05T17:48:07.883Z,79.60
2023-03-05T17:53:11.575Z,79.66
2023-03-05T17:58:15.117Z,79.60
2023-03-05T18:03:18.483Z,79.83
2023-03-05T18:08:21.920Z,79.88
2023-03-05T18:13:25.524Z,80.20
2023-03-05T18:18:29.022Z,80.05
2023-03-05T18:23:32.492Z,80.24
2023-03-05T18:28:36.024Z,80.49
2023-03-05T18:33:39.448Z,80.51
2023-03-05T18:38:43.031Z,80.50
2023-03-05T18:43:46.605Z,80.57
2023-03-05T18:48:50.154Z,80.56
2023-03-05T18:53:54.468Z,80.75
2023-03-05T18:58:58.909Z,80.87
2023-03-05T19:04:03.059Z,80.94
2023-03-05T19:09:16.553Z,81.12
2023-03-05T19:14:20.727Z,81.14
2023-03-05T19:19:24.780Z,81.37
2023-03-05T19:24:30.154Z,81.30
2023-03-05T19:29:37.018Z,81.39
2023-03-05T19:34:40.927Z,81.45
2023-03-05T19:39:44.318Z,81.92
2023-03-05T19:44:47.962Z,81.65
2023-03-05T19:49:51.712Z,82.02
2023-03-05T19:54:55.251Z,81.92
2023-03-05T19:59:58.880Z,82.20
2023-03-05T20:05:02.436Z,82.40
2023-03-05T20:10:07.403Z,82.51
2023-03-05T20:15:11.469Z,82.32
2023-03-05T20:20:18.045Z,82.49
2023-03-05T20:25:24.062Z,82.78
2023-03-05T20:30:28.100Z,82.84
2023-03-05T20:35:31.857Z,83.26
2023-03-05T20:40:35.712Z,83.23
2023-03-05T20:45:39.419Z,83.50
2023-03-05T20:50:43.009Z,83.42
2023-03-05T20:55:46.607Z,83.62
2023-03-05T21:00:50.173Z,83.70
2023-03-05T21:05:55.799Z,83.53
2023-03-05T21:11:00.141Z,83.85
2023-03-05T21:16:07.963Z,83.86
2023-03-05T21:21:11.640Z,83.85
2023-03-05T21:26:15.418Z,83.59
2023-03-05T21:31:21.338Z,83.95
2023-03-05T21:36:24.796Z,84.03
2023-03-05T21:41:29.275Z,83.89
2023-03-05T21:46:34.570Z,83.68
2023-03-05T21:51:48.868Z,83.66
2023-03-05T21:56:52.339Z,83.70
2023-03-05T22:01:55.923Z,83.77
2023-03-05T22:06:59.471Z,83.99
2023-03-05T22:12:04.080Z,83.87
2023-03-05T22:17:07.711Z,83.71
2023-03-05T22:22:11.279Z,83.96
2023-03-05T22:27:14.856Z,83.95
2023-03-05T22:32:18.321Z,84.09
2023-03-05T22:37:21.881Z,83.77
2023-03-05T22:42:25.467Z,83.89
2023-03-05T22:47:29.279Z,84.12
2023-03-05T22:52:32.743Z,83.91
2023-03-05T22:57:36.329Z,83.88
2023-03-05T23:02:40.938Z,83.81
2023-03-05T23:07:45.563Z,83.81
2023-03-05T23:12:51.393Z,83.62
2023-03-05T23:17:55.045Z,83.52
2023-03-05T23:22:59.092Z,83.38
2023-03-05T23:28:03.316Z,83.49
2023-03-05T23:33:08.207Z,83.40
2023-03-05T23:38:13.949Z,83.37
2023-03-05T23:43:18.873Z,83.63
2023-03-05T23:48:24.322Z,83.65
2023-03-05T23:53:30.501Z,83.91
2023-03-05T23:58:35.622Z,83.75
